createdAt,value
2017-11-04T00:01:34.907Z,1.55
2017-11-04T00:04:02.537Z,1.57
2017-11-04T00:06:30.106Z,1.49
2017-11-04T00:08:57.721Z,1.35
2017-11-04T00:11:25.324Z,1.28
2017-11-04T00:13:53.126Z,1.38
2017-11-04T00:16:20.715Z,1.45
2017-11-04T00:18:48.270Z,1.42
2017-11-04T00:21:15.876Z,1.38
2017-11-04T00:23:43.506Z,1.40
2017-11-04T00:26:11.093Z,1.31
2017-11-04T00:28:38.641Z,1.25
2017-11-04T00:31:06.313Z,1.16
2017-11-04T00:33:33.905Z,1.09
2017-11-04T00:36:01.510Z,1.14
2017-11-04T00:38:29.169Z,1.14
2017-11-04T00:40:56.717Z,1.10
2017-11-04T00:43:24.279Z,1.06
2017-11-04T00:45:51.860Z,1.02
2017-11-04T00:48:19.434Z,1.02
2017-11-04T00:50:47.032Z,1.00
2017-11-04T00:53:14.718Z,1.00
2017-11-04T00:55:42.297Z,1.03
2017-11-04T00:58:09.882Z,1.13
2017-11-04T01:00:37.505Z,1.25
2017-11-04T01:03:05.377Z,1.31
2017-11-04T01:05:32.934Z,1.24
2017-11-04T01:08:00.557Z,1.14
2017-11-04T01:10:28.190Z,1.09
2017-11-04T01:12:55.815Z,1.02
2017-11-04T01:15:23.395Z,1.07
2017-11-04T01:17:50.980Z,1.18
2017-11-04T01:20:18.576Z,1.18
2017-11-04T01:22:46.286Z,1.09
2017-11-04T01:25:13.877Z,1.03
2017-11-04T01:27:41.467Z,0.92
2017-11-04T01:30:09.198Z,0.86
2017-11-04T01:32:36.802Z,0.87
2017-11-04T01:35:04.399Z,1.03
2017-11-04T01:37:32.117Z,0.99
2017-11-04T01:39:59.687Z,0.89
2017-11-04T01:42:27.248Z,0.84
2017-11-04T01:44:54.849Z,0.68
2017-11-04T01:47:22.456Z,0.68
2017-11-04T01:49:50.049Z,0.67
2017-11-04T01:52:17.680Z,0.66
2017-11-04T01:54:45.294Z,0.63
2017-11-04T01:57:12.898Z,0.54
2017-11-04T01:59:40.484Z,0.60
2017-11-04T02:02:08.063Z,0.68
2017-11-04T02:04:35.647Z,0.55
2017-11-04T02:07:03.256Z,0.46
2017-11-04T02:09:30.853Z,0.47
2017-11-04T02:11:58.511Z,0.50
2017-11-04T02:14:26.088Z,0.59
2017-11-04T02:16:53.704Z,0.68
2017-11-04T02:19:21.299Z,0.71
2017-11-04T02:21:48.881Z,0.69
2017-11-04T02:24:16.500Z,0.67
2017-11-04T02:26:44.086Z,0.65
2017-11-04T02:29:12.258Z,0.72
2017-11-04T02:31:39.851Z,0.72
2017-11-04T02:34:07.472Z,0.73
2017-11-04T02:36:35.037Z,0.65
2017-11-04T02:39:02.661Z,0.56
2017-11-04T02:41:30.250Z,0.49
2017-11-04T02:43:57.817Z,0.57
2017-11-04T02:46:25.380Z,0.51
2017-11-04T02:48:52.964Z,0.36
2017-11-04T02:51:21.643Z,0.41
2017-11-04T02:53:49.315Z,0.46
2017-11-04T02:56:17.010Z,0.46
2017-11-04T02:58:44.585Z,0.51
2017-11-04T03:01:12.287Z,0.56
2017-11-04T03:03:42.255Z,0.49
2017-11-04T03:06:09.898Z,0.45
2017-11-04T03:08:37.501Z,0.50
2017-11-04T03:11:05.356Z,0.49
2017-11-04T03:13:33.355Z,0.54
2017-11-04T03:16:01.796Z,0.47
2017-11-04T03:18:29.384Z,0.46
2017-11-04T03:20:56.975Z,0.41
2017-11-04T03:23:24.739Z,0.36
2017-11-04T03:25:52.341Z,0.46
2017-11-04T03:28:19.919Z,0.41
2017-11-04T03:30:47.539Z,0.54
2017-11-04T03:33:15.126Z,0.56
2017-11-04T03:35:44.274Z,0.61
2017-11-04T03:38:11.879Z,0.57
2017-11-04T03:40:40.523Z,0.51
2017-11-04T03:43:10.385Z,0.44
2017-11-04T03:45:38.869Z,0.45
2017-11-04T03:48:06.423Z,0.48
2017-11-04T03:50:34.054Z,0.43
2017-11-04T03:53:01.889Z,0.37
2017-11-04T03:55:29.601Z,0.38
2017-11-04T03:57:58.245Z,0.43
2017-11-04T04:00:25.817Z,0.34
2017-11-04T04:02:53.389Z,0.32
2017-11-04T04:05:21.694Z,0.26
2017-11-04T04:07:49.499Z,0.19
2017-11-04T04:10:17.086Z,0.22
2017-11-04T04:12:44.693Z,0.28
2017-11-04T04:15:12.831Z,0.39
2017-11-04T04:17:40.381Z,0.45
2017-11-04T04:20:07.940Z,0.37
2017-11-04T04:22:35.529Z,0.38
2017-11-04T04:25:03.102Z,0.30
2017-11-04T04:27:31.676Z,0.21
2017-11-04T04:29:59.285Z,0.11
2017-11-04T04:32:26.859Z,-0.01
2017-11-04T04:34:57.273Z,0.05
2017-11-04T04:37:24.870Z,0.05
2017-11-04T04:39:52.491Z,0.22
2017-11-04T04:42:20.077Z,0.18
2017-11-04T04:44:47.697Z,0.19
2017-11-04T04:47:15.307Z,0.27
2017-11-04T04:49:42.891Z,0.37
2017-11-04T04:52:10.519Z,0.38
2017-11-04T04:54:38.093Z,0.36
2017-11-04T04:57:05.761Z,0.24
2017-11-04T04:59:33.390Z,0.11
2017-11-04T05:02:00.952Z,0.14
2017-11-04T05:04:28.495Z,0.12
2017-11-04T05:06:56.103Z,0.11
2017-11-04T05:09:24.457Z,0.03
2017-11-04T05:11:52.424Z,0.02
2017-11-04T05:14:20.065Z,0.05
2017-11-04T05:16:47.649Z,0.07
2017-11-04T05:19:15.213Z,0.06
2017-11-04T05:21:42.846Z,-0.07
2017-11-04T05:24:10.669Z,-0.02
2017-11-04T05:26:38.266Z,-0.06
2017-11-04T05:29:05.949Z,-0.06
2017-11-04T05:31:35.188Z,-0.03
2017-11-04T05:34:02.794Z,-0.02
2017-11-04T05:36:30.386Z,-0.04
2017-11-04T05:38:57.952Z,0.00
2017-11-04T05:41:25.561Z,0.00
2017-11-04T05:43:53.884Z,0.00
2017-11-04T05:46:22.442Z,-0.05
2017-11-04T05:48:50.034Z,-0.06
2017-11-04T05:51:17.603Z,-0.10
2017-11-04T05:53:45.185Z,-0.16
2017-11-04T05:56:12.899Z,-0.22
2017-11-04T05:58:40.524Z,-0.20
2017-11-04T06:01:08.150Z,-0.19
2017-11-04T06:03:36.704Z,-0.08
2017-11-04T06:06:04.328Z,-0.14
2017-11-04T06:08:31.949Z,-0.15
2017-11-04T06:10:59.539Z,-0.09
2017-11-04T06:13:27.972Z,-0.04
2017-11-04T06:15:55.547Z,0.06
2017-11-04T06:18:23.314Z,0.04
2017-11-04T06:20:51.172Z,-0.02
2017-11-04T06:23:18.788Z,-0.08
2017-11-04T06:25:46.358Z,-0.07
2017-11-04T06:28:13.994Z,0.05
2017-11-04T06:30:41.585Z,0.26
2017-11-04T06:33:09.695Z,0.34
2017-11-04T06:35:37.535Z,0.38
2017-11-04T06:38:05.089Z,0.41
2017-11-04T06:40:32.669Z,0.50
2017-11-04T06:43:00.266Z,0.63
2017-11-04T06:45:27.853Z,0.78
2017-11-04T06:47:55.411Z,0.97
2017-11-04T06:50:22.996Z,1.08
2017-11-04T06:52:50.545Z,1.11
2017-11-04T06:55:18.102Z,1.19
2017-11-04T06:57:45.670Z,1.23
2017-11-04T07:00:13.241Z,1.32
2017-11-04T07:02:40.864Z,1.33
2017-11-04T07:05:08.575Z,1.42
2017-11-04T07:07:36.153Z,1.50
2017-11-04T07:10:06.816Z,1.60
2017-11-04T07:12:34.404Z,1.64
2017-11-04T07:15:03.049Z,1.78
2017-11-04T07:17:30.655Z,1.92
2017-11-04T07:19:59.353Z,2.01
2017-11-04T07:22:29.053Z,2.15
2017-11-04T07:24:56.730Z,2.31
2017-11-04T07:27:24.898Z,2.41
2017-11-04T07:29:54.054Z,2.56
2017-11-04T07:32:22.243Z,2.72
2017-11-04T07:34:49.905Z,2.86
2017-11-04T07:37:17.497Z,3.00
2017-11-04T07:39:45.103Z,3.10
2017-11-04T07:42:12.746Z,3.16
2017-11-04T07:44:42.000Z,3.13
2017-11-04T07:47:09.750Z,3.10
2017-11-04T07:49:37.319Z,3.29
2017-11-04T07:52:08.605Z,3.49
2017-11-04T07:54:37.875Z,3.73
2017-11-04T07:57:07.057Z,3.76
2017-11-04T07:59:34.660Z,3.90
2017-11-04T08:02:02.213Z,4.14
2017-11-04T08:04:29.802Z,4.41
2017-11-04T08:06:57.360Z,4.49
2017-11-04T08:09:25.816Z,4.41
2017-11-04T08:11:53.376Z,4.73
2017-11-04T08:14:21.127Z,4.91
2017-11-04T08:16:48.819Z,5.15
2017-11-04T08:19:17.333Z,5.14
2017-11-04T08:21:44.913Z,5.27
2017-11-04T08:24:12.466Z,5.28
2017-11-04T08:26:40.013Z,5.31
2017-11-04T08:29:07.646Z,5.41
2017-11-04T08:31:35.240Z,5.67
2017-11-04T08:34:02.821Z,5.77
2017-11-04T08:36:30.386Z,5.96
2017-11-04T08:38:57.960Z,6.19
2017-11-04T08:41:25.810Z,6.19
2017-11-04T08:43:53.594Z,6.22
2017-11-04T08:46:22.642Z,6.37
2017-11-04T08:48:50.229Z,6.50
2017-11-04T08:51:21.621Z,6.80
2017-11-04T08:53:49.246Z,6.65
2017-11-04T08:56:16.862Z,6.59
2017-11-04T08:58:44.421Z,6.76
2017-11-04T09:01:12.011Z,6.95
2017-11-04T09:03:39.572Z,7.19
2017-11-04T09:06:07.306Z,7.13
2017-11-04T09:08:34.877Z,7.12
2017-11-04T09:11:02.458Z,7.10
2017-11-04T09:13:30.064Z,7.39
2017-11-04T09:15:57.645Z,7.38
2017-11-04T09:18:25.692Z,7.53
2017-11-04T09:20:53.322Z,7.68
2017-11-04T09:23:20.921Z,8.06
2017-11-04T09:25:48.580Z,8.27
2017-11-04T09:28:16.274Z,8.16
2017-11-04T09:33:35.416Z,8.26
2017-11-04T09:36:02.997Z,8.48
2017-11-04T09:38:30.621Z,8.55
2017-11-04T09:40:58.230Z,8.60
2017-11-04T09:43:27.744Z,8.57
2017-11-04T09:45:55.314Z,9.04
2017-11-04T09:48:23.619Z,9.03
2017-11-04T09:50:51.197Z,9.22
2017-11-04T09:53:18.869Z,9.49
2017-11-04T09:55:46.803Z,9.57
2017-11-04T09:58:14.360Z,9.69
2017-11-04T10:00:41.956Z,9.73
2017-11-04T10:03:09.847Z,9.84
2017-11-04T10:05:38.598Z,9.93
2017-11-04T10:08:06.206Z,10.08
2017-11-04T10:10:33.791Z,10.22
2017-11-04T10:13:01.376Z,10.51
2017-11-04T10:15:29.012Z,10.72
2017-11-04T10:17:56.604Z,10.66
2017-11-04T10:20:24.188Z,10.84
2017-11-04T10:22:51.814Z,10.92
2017-11-04T10:25:19.714Z,10.90
2017-11-04T10:27:47.316Z,11.11
2017-11-04T10:30:14.911Z,11.16
2017-11-04T10:32:42.493Z,11.31
2017-11-04T10:35:10.460Z,11.52
2017-11-04T10:37:38.073Z,11.61
2017-11-04T10:40:05.629Z,11.52
2017-11-04T10:42:43.077Z,11.50
2017-11-04T10:45:11.044Z,11.72
2017-11-04T10:47:38.631Z,11.72
2017-11-04T10:50:06.239Z,11.71
2017-11-04T10:52:33.825Z,11.65
2017-11-04T10:55:01.421Z,11.89
2017-11-04T10:57:29.033Z,12.07
2017-11-04T10:59:57.031Z,12.16
2017-11-04T11:02:24.659Z,12.63
2017-11-04T11:04:52.313Z,12.73
2017-11-04T11:07:20.126Z,12.57
2017-11-04T11:09:47.829Z,12.92
2017-11-04T11:12:15.598Z,12.59
2017-11-04T11:14:45.860Z,12.67
2017-11-04T11:17:16.747Z,12.64
2017-11-04T11:19:45.249Z,12.88
2017-11-04T11:22:12.812Z,12.94
2017-11-04T11:24:40.383Z,13.14
2017-11-04T11:27:08.114Z,13.55
2017-11-04T11:29:35.740Z,13.52
2017-11-04T11:32:06.375Z,13.39
2017-11-04T11:34:33.983Z,13.64
2017-11-04T11:37:01.562Z,13.45
2017-11-04T11:39:29.810Z,13.81
2017-11-04T11:41:57.424Z,14.02
2017-11-04T11:44:25.066Z,14.11
2017-11-04T11:46:53.562Z,14.13
2017-11-04T11:49:21.493Z,14.13
2017-11-04T11:51:49.947Z,14.18
2017-11-04T11:54:17.594Z,13.72
2017-11-04T11:56:45.207Z,13.50
2017-11-04T11:59:14.352Z,13.50
2017-11-04T12:01:42.113Z,13.86
2017-11-04T12:04:09.878Z,13.98
2017-11-04T12:06:37.499Z,14.56
2017-11-04T12:09:05.451Z,14.20
2017-11-04T12:11:33.103Z,14.63
2017-11-04T12:14:00.675Z,15.00
2017-11-04T12:16:28.261Z,14.98
2017-11-04T12:18:55.881Z,15.23
2017-11-04T12:21:23.457Z,15.46
2017-11-04T12:23:51.061Z,15.55
2017-11-04T12:26:18.816Z,16.19
2017-11-04T12:28:46.389Z,16.37
2017-11-04T12:31:14.744Z,16.73
2017-11-04T12:33:42.583Z,16.94
2017-11-04T12:36:10.283Z,16.86
2017-11-04T12:38:37.868Z,16.62
2017-11-04T12:41:05.857Z,16.15
2017-11-04T12:43:38.545Z,16.15
2017-11-04T12:46:06.297Z,15.98
2017-11-04T12:48:33.851Z,16.10
2017-11-04T12:51:01.544Z,16.02
2017-11-04T12:53:29.152Z,16.02
2017-11-04T12:55:56.746Z,15.89
2017-11-04T12:58:24.327Z,15.80
2017-11-04T13:00:53.430Z,15.76
2017-11-04T13:03:21.372Z,15.65
2017-11-04T13:05:49.105Z,15.46
2017-11-04T13:08:16.809Z,15.24
2017-11-04T13:10:44.450Z,15.26
2017-11-04T13:13:12.569Z,15.17
2017-11-04T13:15:41.204Z,14.95
2017-11-04T13:18:08.761Z,14.82
2017-11-04T13:20:36.334Z,14.89
2017-11-04T13:23:04.051Z,14.84
2017-11-04T13:25:31.632Z,15.01
2017-11-04T13:27:59.219Z,15.15
2017-11-04T13:30:26.838Z,15.11
2017-11-04T13:32:54.452Z,15.17
2017-11-04T13:35:22.262Z,14.90
2017-11-04T13:37:49.848Z,14.92
2017-11-04T13:40:17.469Z,14.86
2017-11-04T13:42:45.030Z,15.21
2017-11-04T13:45:13.106Z,15.02
2017-11-04T13:47:40.786Z,14.38
2017-11-04T13:50:08.437Z,14.58
2017-11-04T13:52:36.023Z,14.33
2017-11-04T13:55:03.663Z,14.52
2017-11-04T13:57:31.316Z,14.18
2017-11-04T13:59:58.900Z,13.97
2017-11-04T14:02:27.568Z,14.03
2017-11-04T14:04:55.175Z,13.63
2017-11-04T14:07:23.172Z,13.73
2017-11-04T14:09:50.850Z,13.47
2017-11-04T14:12:18.520Z,13.51
2017-11-04T14:14:46.099Z,13.44
2017-11-04T14:17:14.052Z,13.38
2017-11-04T14:19:42.192Z,13.11
2017-11-04T14:22:09.951Z,12.99
2017-11-04T14:24:37.549Z,12.83
2017-11-04T14:27:05.625Z,12.72
2017-11-04T14:29:33.231Z,12.07
2017-11-04T14:32:00.849Z,11.95
2017-11-04T14:34:28.422Z,11.89
2017-11-04T14:36:56.063Z,11.84
2017-11-04T14:39:23.623Z,11.70
2017-11-04T14:41:51.210Z,11.59
2017-11-04T14:44:18.826Z,11.48
2017-11-04T14:46:46.396Z,11.31
2017-11-04T14:49:14.007Z,11.23
2017-11-04T14:51:41.587Z,11.08
2017-11-04T14:54:09.294Z,10.77
2017-11-04T14:56:36.863Z,10.47
2017-11-04T14:59:04.443Z,10.24
2017-11-04T15:01:33.855Z,10.01
2017-11-04T15:04:03.699Z,9.87
2017-11-04T15:06:31.323Z,9.75
2017-11-04T15:08:58.904Z,9.55
2017-11-04T15:11:26.457Z,9.47
2017-11-04T15:13:56.821Z,9.36
2017-11-04T15:16:24.986Z,9.14
2017-11-04T15:18:52.618Z,9.03
2017-11-04T15:21:20.187Z,8.98
2017-11-04T15:23:47.819Z,8.94
2017-11-04T15:26:15.379Z,8.81
2017-11-04T15:28:42.970Z,8.61
2017-11-04T15:31:10.878Z,8.47
2017-11-04T15:33:38.469Z,8.31
2017-11-04T15:36:06.753Z,8.00
2017-11-04T15:38:34.394Z,7.83
2017-11-04T15:41:02.233Z,7.76
2017-11-04T15:43:29.883Z,7.61
2017-11-04T15:45:57.564Z,7.46
2017-11-04T15:48:25.173Z,7.40
2017-11-04T15:50:52.750Z,7.31
2017-11-04T15:53:22.500Z,7.29
2017-11-04T15:55:50.133Z,7.29
2017-11-04T15:58:17.686Z,7.26
2017-11-04T16:00:45.279Z,7.21
2017-11-04T16:03:13.122Z,7.19
2017-11-04T16:05:40.676Z,7.17
2017-11-04T16:08:08.291Z,7.13
2017-11-04T16:10:35.854Z,7.09
2017-11-04T16:13:03.478Z,7.06
2017-11-04T16:15:31.094Z,6.99
2017-11-04T16:18:01.835Z,6.97
2017-11-04T16:20:30.587Z,6.92
2017-11-04T16:22:58.284Z,6.91
2017-11-04T16:25:25.888Z,6.93
2017-11-04T16:27:53.480Z,6.93
2017-11-04T16:30:21.098Z,6.95
2017-11-04T16:32:48.677Z,7.00
2017-11-04T16:35:16.273Z,7.00
2017-11-04T16:37:44.025Z,6.88
2017-11-04T16:40:11.670Z,6.78
2017-11-04T16:42:39.237Z,6.80
2017-11-04T16:45:07.047Z,6.83
2017-11-04T16:47:35.453Z,6.75
2017-11-04T16:50:03.033Z,6.77
2017-11-04T16:52:30.636Z,6.57
2017-11-04T16:55:09.536Z,6.44
2017-11-04T16:57:37.125Z,6.42
2017-11-04T17:00:05.234Z,6.38
2017-11-04T17:02:32.789Z,6.34
2017-11-04T17:05:00.345Z,6.26
2017-11-04T17:07:28.028Z,6.20
2017-11-04T17:10:10.722Z,6.22
2017-11-04T17:12:38.359Z,6.19
2017-11-04T17:15:06.013Z,6.20
2017-11-04T17:17:33.575Z,6.23
2017-11-04T17:20:01.165Z,6.25
2017-11-04T17:22:28.797Z,6.13
2017-11-04T17:24:56.478Z,6.03
2017-11-04T17:27:24.043Z,5.98
2017-11-04T17:29:51.646Z,6.04
2017-11-04T17:32:19.898Z,5.97
2017-11-04T17:34:47.478Z,6.01
2017-11-04T17:37:15.041Z,6.12
2017-11-04T17:39:42.666Z,6.17
2017-11-04T17:42:10.390Z,6.16
2017-11-04T17:44:37.969Z,6.10
2017-11-04T17:47:05.783Z,6.00
2017-11-04T17:49:44.213Z,5.89
2017-11-04T17:55:03.832Z,5.73
2017-11-04T17:57:31.856Z,5.77
2017-11-04T17:59:59.429Z,5.78
2017-11-04T18:02:27.063Z,5.74
2017-11-04T18:04:54.621Z,5.70
2017-11-04T18:07:22.313Z,5.64
2017-11-04T18:09:50.019Z,5.69
2017-11-04T18:12:17.680Z,5.66
2017-11-04T18:14:45.236Z,5.61
2017-11-04T18:17:12.928Z,5.65
2017-11-04T18:19:40.477Z,5.66
2017-11-04T18:22:08.155Z,5.66
2017-11-04T18:24:37.552Z,5.66
2017-11-04T18:27:05.727Z,5.47
2017-11-04T18:29:33.322Z,5.52
2017-11-04T18:32:00.914Z,5.56
2017-11-04T18:34:28.483Z,5.51
2017-11-04T18:36:56.078Z,5.48
2017-11-04T18:39:23.909Z,5.48
2017-11-04T18:41:51.496Z,5.48
2017-11-04T18:44:19.086Z,5.48
2017-11-04T18:46:46.698Z,5.46
2017-11-04T18:49:14.290Z,5.37
2017-11-04T18:51:41.874Z,5.35
2017-11-04T18:54:09.471Z,5.27
2017-11-04T18:56:37.075Z,5.19
2017-11-04T18:59:04.624Z,5.17
2017-11-04T19:01:32.213Z,5.11
2017-11-04T19:03:59.784Z,5.19
2017-11-04T19:06:27.354Z,5.21
2017-11-04T19:08:56.626Z,5.30
2017-11-04T19:11:24.950Z,5.30
2017-11-04T19:13:53.070Z,5.28
2017-11-04T19:16:20.694Z,5.31
2017-11-04T19:18:48.296Z,5.41
2017-11-04T19:21:16.604Z,5.43
2017-11-04T19:23:44.224Z,5.48
2017-11-04T19:26:11.779Z,5.43
2017-11-04T19:28:39.345Z,5.32
2017-11-04T19:31:08.882Z,5.34
2017-11-04T19:33:36.441Z,5.28
2017-11-04T19:36:04.221Z,5.28
2017-11-04T19:38:31.822Z,5.26
2017-11-04T19:40:59.424Z,5.23
2017-11-04T19:43:27.352Z,5.21
2017-11-04T19:45:55.094Z,5.08
2017-11-04T19:48:22.686Z,4.90
2017-11-04T19:50:50.261Z,4.78
2017-11-04T19:53:17.852Z,4.75
2017-11-04T19:55:45.409Z,4.79
2017-11-04T19:58:13.213Z,4.78
2017-11-04T20:03:31.940Z,4.66
2017-11-04T20:05:59.520Z,4.63
2017-11-04T20:08:27.129Z,4.60
2017-11-04T20:10:54.721Z,4.65
2017-11-04T20:13:22.383Z,4.71
2017-11-04T20:15:49.935Z,4.77
2017-11-04T20:18:17.522Z,4.79
2017-11-04T20:20:45.079Z,4.85
2017-11-04T20:23:12.817Z,4.80
2017-11-04T20:25:41.270Z,4.81
2017-11-04T20:28:08.870Z,4.85
2017-11-04T20:30:36.448Z,4.93
2017-11-04T20:33:04.078Z,4.91
2017-11-04T20:35:31.654Z,4.86
2017-11-04T20:37:59.240Z,4.86
2017-11-04T20:40:27.801Z,4.78
2017-11-04T20:42:55.578Z,4.83
2017-11-04T20:45:23.186Z,4.82
2017-11-04T20:47:50.773Z,4.75
2017-11-04T20:50:18.348Z,4.71
2017-11-04T20:52:45.921Z,4.69
2017-11-04T20:55:13.780Z,4.71
2017-11-04T20:57:41.387Z,4.70
2017-11-04T21:00:08.978Z,4.75
2017-11-04T21:02:36.635Z,4.68
2017-11-04T21:05:05.201Z,4.62
2017-11-04T21:07:32.799Z,4.60
2017-11-04T21:10:00.497Z,4.60
2017-11-04T21:12:28.090Z,4.48
2017-11-04T21:14:55.666Z,4.42
2017-11-04T21:17:23.275Z,4.35
2017-11-04T21:19:50.922Z,4.33
2017-11-04T21:22:18.611Z,4.41
2017-11-04T21:24:46.209Z,4.41
2017-11-04T21:27:13.956Z,4.43
2017-11-04T21:29:41.536Z,4.36
2017-11-04T21:32:09.118Z,4.37
2017-11-04T21:34:36.724Z,4.41
2017-11-04T21:37:04.407Z,4.37
2017-11-04T21:39:32.010Z,4.33
2017-11-04T21:41:59.600Z,4.31
2017-11-04T21:44:27.206Z,4.24
2017-11-04T21:46:54.781Z,4.21
2017-11-04T21:49:22.625Z,4.21
2017-11-04T21:51:50.214Z,4.29
2017-11-04T21:54:18.032Z,4.27
2017-11-04T21:56:45.610Z,4.19
2017-11-04T21:59:13.223Z,4.13
2017-11-04T22:01:40.804Z,4.06
2017-11-04T22:04:08.614Z,4.08
2017-11-04T22:06:36.205Z,4.19
2017-11-04T22:09:03.997Z,4.18
2017-11-04T22:11:31.712Z,4.18
2017-11-04T22:13:59.298Z,4.28
2017-11-04T22:16:26.863Z,4.26
2017-11-04T22:18:54.460Z,4.24
2017-11-04T22:21:22.048Z,4.25
2017-11-04T22:23:49.782Z,4.29
2017-11-04T22:26:17.463Z,4.34
2017-11-04T22:28:45.100Z,4.36
2017-11-04T22:31:12.711Z,4.32
2017-11-04T22:33:50.306Z,4.35
2017-11-04T22:36:17.882Z,4.42
2017-11-04T22:38:45.694Z,4.53
2017-11-04T22:41:13.300Z,4.74
2017-11-04T22:43:40.918Z,4.78
2017-11-04T22:46:08.548Z,4.74
2017-11-04T22:48:36.307Z,4.76
2017-11-04T22:51:04.043Z,4.83
2017-11-04T22:53:31.597Z,4.87
2017-11-04T22:55:59.217Z,4.84
2017-11-04T22:58:26.765Z,4.82
2017-11-04T23:00:54.435Z,4.82
2017-11-04T23:03:22.040Z,4.83
2017-11-04T23:05:49.631Z,4.79
2017-11-04T23:08:19.111Z,4.71
2017-11-04T23:10:50.566Z,4.54
2017-11-04T23:13:18.208Z,4.44
2017-11-04T23:15:45.816Z,4.37
2017-11-04T23:18:19.871Z,4.37
2017-11-04T23:20:49.001Z,4.42
2017-11-04T23:23:16.563Z,4.46
2017-11-04T23:25:44.160Z,4.36
2017-11-04T23:28:11.798Z,4.22
2017-11-04T23:30:39.425Z,4.16
2017-11-04T23:33:07.110Z,4.02
2017-11-04T23:35:34.804Z,3.93
2017-11-04T23:38:02.406Z,3.95
2017-11-04T23:40:30.047Z,3.96
2017-11-04T23:42:57.836Z,3.92
2017-11-04T23:45:25.421Z,3.96
2017-11-04T23:47:52.999Z,3.96
2017-11-04T23:50:20.652Z,4.02
2017-11-04T23:52:48.238Z,4.08
2017-11-04T23:55:16.274Z,4.14
2017-11-04T23:57:43.865Z,4.07
